Time;durP1;ratioP1;P1;durP2;ratioP2;P2;SDS_P1;SDS_P2;PMS_P1;PMS_P2;Temp;Humidity;BMP_temperature;BMP_pressure;BME280_temperature;BME280_humidity;BME280_pressure;Samples;Min_cycle;Max_cycle;Signal;HPM_P1;HPM_P2
2021/01/12 00:02:24;;;;;;;36.43;8.70;;;;;;;7.30;100.00;101590.34;5056882;28;20177;-75
2021/01/12 00:04:52;;;;;;;48.20;32.83;;;;;;;7.30;100.00;101591.22;5059203;28;20164;-77
2021/01/12 00:07:22;;;;;;;35.90;8.50;;;;;;;7.35;100.00;101591.88;5068145;28;20435;-74
2021/01/12 00:09:49;;;;;;;36.87;9.37;;;;;;;7.41;100.00;101580.34;5066459;28;20970;-74
2021/01/12 00:12:18;;;;;;;39.77;8.57;;;;;;;7.39;100.00;101569.06;5063146;28;20430;-75
2021/01/12 00:14:45;;;;;;;36.83;7.80;;;;;;;7.37;100.00;101558.69;5049418;28;20431;-74
2021/01/12 00:17:11;;;;;;;36.60;8.33;;;;;;;7.40;100.00;101548.09;5064486;28;20484;-74
2021/01/12 00:19:37;;;;;;;35.70;7.90;;;;;;;7.39;100.00;101548.16;5064135;28;20423;-74
2021/01/12 00:22:07;;;;;;;36.60;8.17;;;;;;;7.40;100.00;101552.47;5063923;28;20237;-74
2021/01/12 00:24:35;;;;;;;36.70;8.27;;;;;;;7.39;100.00;101548.16;5069100;28;20434;-74
2021/01/12 00:27:00;;;;;;;37.80;10.10;;;;;;;7.36;100.00;101548.31;5063158;28;20456;-73
2021/01/12 00:29:26;;;;;;;37.20;9.27;;;;;;;7.37;100.00;101536.94;5064124;28;20439;-75
2021/01/12 00:31:52;;;;;;;37.03;10.20;;;;;;;7.45;100.00;101527.00;5060306;28;20423;-75
2021/01/12 00:34:17;;;;;;;37.83;9.43;;;;;;;7.45;100.00;101533.09;5068304;28;20176;-76
2021/01/12 00:36:49;;;;;;;38.13;8.90;;;;;;;7.40;100.00;101529.78;5060203;28;20171;-74
2021/01/12 00:39:16;;;;;;;36.47;8.67;;;;;;;7.40;100.00;101521.09;5069703;28;20203;-73
2021/01/12 00:41:45;;;;;;;35.77;7.90;;;;;;;7.42;100.00;101530.59;5069003;28;20435;-72
2021/01/12 00:44:10;;;;;;;36.60;10.43;;;;;;;7.40;100.00;101532.41;5070681;28;20402;-73
2021/01/12 00:46:36;;;;;;;37.60;10.23;;;;;;;7.43;100.00;101541.91;5069948;28;20395;-74
2021/01/12 00:49:02;;;;;;;37.87;11.00;;;;;;;7.49;100.00;101547.75;5065206;28;20218;-75
2021/01/12 00:51:38;;;;;;;37.83;9.73;;;;;;;7.55;100.00;101540.53;5066004;28;20263;-74
2021/01/12 00:54:09;;;;;;;41.50;10.33;;;;;;;7.51;100.00;101538.06;5070256;28;20214;-72
2021/01/12 00:56:35;;;;;;;37.73;9.40;;;;;;;7.44;100.00;101525.31;5068389;28;20569;-74
2021/01/12 00:59:00;;;;;;;36.53;8.77;;;;;;;7.50;100.00;101520.69;5067132;28;20458;-73
2021/01/12 01:01:26;;;;;;;35.47;7.83;;;;;;;7.48;100.00;101526.88;5058147;28;20184;-75
2021/01/12 01:03:52;;;;;;;45.43;11.37;;;;;;;7.51;100.00;101521.53;5054768;28;20177;-73
2021/01/12 01:06:19;;;;;;;36.70;10.57;;;;;;;7.49;100.00;101511.13;5056902;28;20518;-74
2021/01/12 01:08:44;;;;;;;41.77;12.03;;;;;;;7.46;100.00;101503.41;5065628;28;20461;-74
2021/01/12 01:11:10;;;;;;;38.83;11.83;;;;;;;7.44;100.00;101513.09;5058808;28;20451;-75
2021/01/12 01:13:35;;;;;;;37.47;10.23;;;;;;;7.56;100.00;101516.97;5050407;28;20223;-74
2021/01/12 01:16:01;;;;;;;35.73;9.27;;;;;;;7.51;100.00;101492.78;5065506;28;20169;-74
2021/01/12 01:18:27;;;;;;;37.43;10.97;;;;;;;7.52;100.00;101491.84;5035755;28;20641;-75
2021/01/12 01:20:52;;;;;;;36.27;10.80;;;;;;;7.54;100.00;101494.41;5067458;28;20426;-75
2021/01/12 01:23:18;;;;;;;37.37;11.27;;;;;;;7.58;100.00;101498.59;5069624;28;20172;-75
2021/01/12 01:25:44;;;;;;;38.27;11.80;;;;;;;7.51;100.00;101488.38;5070018;28;20245;-74
2021/01/12 01:28:10;;;;;;;42.60;11.20;;;;;;;7.51;100.00;101477.94;5067058;28;20172;-76
2021/01/12 01:30:36;;;;;;;38.57;8.80;;;;;;;7.51;100.00;101470.09;5066259;28;20200;-76
2021/01/12 01:33:02;;;;;;;35.40;8.80;;;;;;;7.55;100.00;101462.09;5066870;28;20491;-78
2021/01/12 01:35:27;;;;;;;41.40;11.63;;;;;;;7.54;100.00;101460.41;5070047;28;20409;-76
2021/01/12 01:37:53;;;;;;;37.10;9.60;;;;;;;7.50;100.00;101463.16;5067226;28;20480;-74
2021/01/12 01:40:23;;;;;;;36.10;8.07;;;;;;;7.55;100.00;101449.03;5072883;28;20193;-74
2021/01/12 01:42:49;;;;;;;36.80;9.77;;;;;;;7.47;100.00;101441.50;5071080;28;20562;-74
2021/01/12 01:45:17;;;;;;;37.67;9.17;;;;;;;7.55;100.00;101444.66;5068835;28;20528;-74
2021/01/12 01:47:44;;;;;;;37.47;10.07;;;;;;;7.48;100.00;101425.78;5056441;28;20836;-73
2021/01/12 01:50:18;;;;;;;38.37;10.80;;;;;;;7.51;100.00;101419.56;5072618;28;20394;-74
2021/01/12 01:52:47;;;;;;;36.00;9.27;;;;;;;7.53;100.00;101419.50;5070997;28;20415;-73
2021/01/12 01:55:13;;;;;;;35.83;9.00;;;;;;;7.47;100.00;101421.44;5060777;28;20949;-73
2021/01/12 01:57:39;;;;;;;35.33;8.27;;;;;;;7.47;100.00;101418.81;5069942;28;20466;-73
2021/01/12 02:00:06;;;;;;;37.50;8.27;;;;;;;7.45;100.00;101404.13;5049593;28;20439;-73
2021/01/12 02:02:46;;;;;;;35.63;8.53;;;;;;;7.46;100.00;101406.69;5053537;28;20194;-74
2021/01/12 02:05:14;;;;;;;36.27;9.20;;;;;;;7.45;100.00;101404.13;5054633;28;20883;-74
2021/01/12 02:07:44;;;;;;;36.07;8.10;;;;;;;7.40;100.00;101433.06;5060191;28;20820;-74
2021/01/12 02:10:13;;;;;;;37.37;8.30;;;;;;;7.45;100.00;101452.03;5069133;28;20928;-75
2021/01/12 02:12:55;;;;;;;37.37;9.40;;;;;;;7.49;100.00;101453.63;5073045;28;20402;-73
2021/01/12 02:15:22;;;;;;;35.80;7.57;;;;;;;7.50;100.00;101447.47;5068241;28;20427;-74
2021/01/12 02:17:50;;;;;;;38.30;8.00;;;;;;;7.48;100.00;101433.63;5072855;28;20454;-76
2021/01/12 02:20:15;;;;;;;35.00;7.67;;;;;;;7.44;100.00;101426.81;5071559;28;20427;-75
2021/01/12 02:23:03;;;;;;;36.50;9.50;;;;;;;7.41;100.00;101418.28;5072177;28;20422;-72
2021/01/12 02:25:32;;;;;;;34.50;7.40;;;;;;;7.46;100.00;101411.06;5070286;28;20180;-74
2021/01/12 02:27:58;;;;;;;34.90;7.20;;;;;;;7.55;100.00;101401.97;5072799;28;20469;-74
2021/01/12 02:30:24;;;;;;;38.23;8.90;;;;;;;7.43;100.00;101404.22;5071209;28;20451;-74
2021/01/12 02:32:50;;;;;;;39.47;8.03;;;;;;;7.44;100.00;101408.50;5055093;28;20458;-73
2021/01/12 02:35:19;;;;;;;36.17;9.57;;;;;;;7.45;100.00;101423.28;5073153;28;20544;-75
2021/01/12 02:37:46;;;;;;;39.00;7.90;;;;;;;7.43;100.00;101411.19;5067207;28;20559;-77
2021/01/12 02:40:13;;;;;;;36.53;8.50;;;;;;;7.55;100.00;101407.19;5052650;28;20431;-77
2021/01/12 02:42:41;;;;;;;36.07;9.07;;;;;;;7.46;100.00;101413.66;5054012;28;20418;-75
2021/01/12 02:45:08;;;;;;;35.00;8.57;;;;;;;7.51;100.00;101414.34;5057890;28;20989;-77
2021/01/12 02:47:35;;;;;;;35.33;8.87;;;;;;;7.51;100.00;101412.56;5073395;28;20399;-75
2021/01/12 02:50:01;;;;;;;35.90;8.67;;;;;;;7.57;100.00;101414.06;5069834;28;20416;-74
2021/01/12 02:52:26;;;;;;;37.90;9.40;;;;;;;7.50;100.00;101421.34;5068209;28;20845;-74
2021/01/12 02:54:52;;;;;;;36.90;8.90;;;;;;;7.49;100.00;101427.47;5072023;28;20616;-73
2021/01/12 02:57:17;;;;;;;34.47;7.67;;;;;;;7.49;100.00;101414.41;5073364;28;20203;-76
2021/01/12 02:59:43;;;;;;;37.93;8.57;;;;;;;7.50;100.00;101416.09;5071943;28;20215;-75
2021/01/12 03:02:08;;;;;;;35.20;9.50;;;;;;;7.48;100.00;101431.00;5066330;28;20172;-72
2021/01/12 03:04:34;;;;;;;35.97;8.93;;;;;;;7.56;100.00;101437.66;5060832;28;20311;-74
2021/01/12 03:06:59;;;;;;;36.97;10.57;;;;;;;7.55;100.00;101443.78;5071067;28;20177;-72
2021/01/12 03:09:25;;;;;;;36.30;8.03;;;;;;;7.55;100.00;101428.97;5071992;28;20185;-78
2021/01/12 03:11:51;;;;;;;36.03;9.40;;;;;;;7.54;100.00;101418.56;5071739;28;20683;-74
2021/01/12 03:14:17;;;;;;;36.00;9.20;;;;;;;7.54;100.00;101413.34;5071603;28;20180;-73
2021/01/12 03:16:42;;;;;;;36.87;9.17;;;;;;;7.54;100.00;101408.13;5056272;28;20422;-75
2021/01/12 03:19:08;;;;;;;35.90;10.30;;;;;;;7.48;100.00;101402.25;5066432;28;20627;-72
2021/01/12 03:21:33;;;;;;;36.67;11.17;;;;;;;7.58;100.00;101420.16;5071939;28;20176;-74
2021/01/12 03:23:59;;;;;;;36.40;8.43;;;;;;;7.64;100.00;101414.66;5056387;28;20655;-72
2021/01/12 03:26:25;;;;;;;36.13;9.27;;;;;;;7.56;100.00;101398.44;5063358;28;20299;-74
2021/01/12 03:28:50;;;;;;;35.60;7.93;;;;;;;7.65;100.00;101375.34;5071020;28;20199;-74
2021/01/12 03:31:15;;;;;;;36.87;7.33;;;;;;;7.62;100.00;101379.84;5065149;28;20176;-74
2021/01/12 03:33:41;;;;;;;36.17;8.90;;;;;;;7.56;100.00;101370.53;5055006;28;20937;-72
2021/01/12 03:36:07;;;;;;;34.40;8.00;;;;;;;7.50;100.00;101358.59;5054526;28;20220;-73
2021/01/12 03:38:33;;;;;;;35.20;7.37;;;;;;;7.55;100.00;101362.75;5064555;28;20983;-73
2021/01/12 03:40:58;;;;;;;34.00;8.47;;;;;;;7.52;100.00;101363.75;5059441;28;20412;-73
2021/01/12 03:43:24;;;;;;;34.37;6.97;;;;;;;7.52;100.00;101384.66;5072165;28;20157;-72
2021/01/12 03:45:51;;;;;;;34.70;7.90;;;;;;;7.49;100.00;101390.88;5070876;28;20229;-73
2021/01/12 03:48:16;;;;;;;35.50;7.90;;;;;;;7.54;100.00;101392.41;5064985;28;20173;-72
2021/01/12 03:50:42;;;;;;;35.70;9.77;;;;;;;7.50;100.00;101392.56;5051476;28;20407;-73
2021/01/12 03:53:08;;;;;;;39.90;9.70;;;;;;;7.50;100.00;101397.81;5056568;28;20557;-74
2021/01/12 03:55:33;;;;;;;34.40;8.73;;;;;;;7.48;100.00;101404.00;5065008;28;20172;-71
2021/01/12 03:57:59;;;;;;;36.93;10.40;;;;;;;7.53;100.00;101406.41;5071237;28;20188;-71
2021/01/12 04:00:24;;;;;;;36.27;10.20;;;;;;;7.59;100.00;101390.47;5070423;28;20688;-73
2021/01/12 04:02:50;;;;;;;35.10;7.10;;;;;;;7.54;100.00;101381.97;5064749;28;20715;-72
2021/01/12 04:05:16;;;;;;;33.70;7.90;;;;;;;7.52;100.00;101363.75;5051698;28;20171;-72
2021/01/12 04:07:42;;;;;;;35.30;8.00;;;;;;;7.49;100.00;101346.44;5057400;28;20194;-72
2021/01/12 04:10:09;;;;;;;34.30;8.27;;;;;;;7.44;100.00;101335.31;5071582;28;20435;-72
2021/01/12 04:12:35;;;;;;;35.30;8.50;;;;;;;7.51;100.00;101355.03;5070572;28;20183;-71
2021/01/12 04:15:00;;;;;;;34.90;7.27;;;;;;;7.45;100.00;101347.47;5070777;28;20418;-71
2021/01/12 04:17:26;;;;;;;35.10;8.57;;;;;;;7.47;100.00;101332.56;5069749;28;20253;-75
2021/01/12 04:19:51;;;;;;;35.80;9.20;;;;;;;7.36;100.00;101321.75;5070409;28;20214;-72
2021/01/12 04:22:17;;;;;;;35.37;8.90;;;;;;;7.49;100.00;101332.50;5054615;28;20177;-72
2021/01/12 04:24:42;;;;;;;33.83;8.87;;;;;;;7.50;100.00;101332.44;5069213;28;20180;-71
2021/01/12 04:27:08;;;;;;;35.53;9.37;;;;;;;7.46;100.00;101336.09;5066285;28;20290;-73
2021/01/12 04:29:33;;;;;;;39.17;12.97;;;;;;;7.49;100.00;101319.44;5057569;28;20275;-72
2021/01/12 04:31:59;;;;;;;35.50;9.77;;;;;;;7.44;100.00;101309.19;5051583;28;20219;-72
2021/01/12 04:34:24;;;;;;;36.30;11.67;;;;;;;7.43;100.00;101301.41;5062018;28;20192;-72
2021/01/12 04:36:50;;;;;;;38.03;16.57;;;;;;;7.43;100.00;101302.25;5051662;28;20219;-72
2021/01/12 04:39:15;;;;;;;35.20;11.43;;;;;;;7.45;100.00;101295.19;5062477;28;20272;-72
2021/01/12 04:41:41;;;;;;;37.57;18.63;;;;;;;7.45;100.00;101300.41;5069665;28;20160;-72
2021/01/12 04:44:06;;;;;;;35.80;13.83;;;;;;;7.46;100.00;101320.41;5070835;28;20260;-72
2021/01/12 04:46:32;;;;;;;37.83;14.70;;;;;;;7.51;100.00;101325.44;5070537;28;20650;-72
2021/01/12 04:48:58;;;;;;;37.07;17.53;;;;;;;7.54;100.00;101340.13;5058314;28;20168;-72
2021/01/12 04:51:25;;;;;;;37.10;12.87;;;;;;;7.51;100.00;101341.97;5060343;28;20682;-73
2021/01/12 04:53:51;;;;;;;38.20;13.97;;;;;;;7.56;100.00;101340.91;5070659;28;20221;-72
2021/01/12 04:56:18;;;;;;;38.23;17.30;;;;;;;7.56;100.00;101349.63;5069058;28;20422;-74
2021/01/12 04:58:45;;;;;;;38.63;14.17;;;;;;;7.48;100.00;101329.06;5071094;28;20447;-74
2021/01/12 05:01:22;;;;;;;36.20;12.07;;;;;;;7.47;100.00;101318.63;5069206;28;20406;-71
2021/01/12 05:03:52;;;;;;;37.80;15.43;;;;;;;7.51;100.00;101314.97;5058919;28;20410;-72
2021/01/12 05:06:21;;;;;;;38.93;15.63;;;;;;;7.48;100.00;101307.25;5061397;28;20423;-72
2021/01/12 05:08:55;;;;;;;37.77;13.20;;;;;;;7.48;100.00;101310.75;5073472;28;20996;-74
2021/01/12 05:11:30;;;;;;;35.90;13.17;;;;;;;7.48;100.00;101302.91;5074542;28;20509;-74
2021/01/12 05:14:00;;;;;;;41.27;16.50;;;;;;;7.54;100.00;101309.59;5068322;28;20457;-73
2021/01/12 05:16:26;;;;;;;36.07;13.07;;;;;;;7.48;100.00;101315.09;5056516;28;20432;-75
2021/01/12 05:18:53;;;;;;;34.50;10.37;;;;;;;7.50;100.00;101324.59;5070417;28;20852;-72
2021/01/12 05:21:19;;;;;;;38.10;14.07;;;;;;;7.52;100.00;101311.44;5057154;28;20975;-74
2021/01/12 05:24:05;;;;;;;35.50;12.17;;;;;;;7.49;100.00;101288.91;5074345;28;20900;-73
2021/01/12 05:26:36;;;;;;;40.37;11.47;;;;;;;7.49;100.00;101281.06;5073595;28;20545;-73
2021/01/12 05:29:06;;;;;;;41.53;10.60;;;;;;;7.54;100.00;101267.78;5064531;28;20438;-74
2021/01/12 05:31:35;;;;;;;36.93;10.03;;;;;;;7.53;100.00;101241.69;5064382;28;20913;-75
2021/01/12 05:34:08;;;;;;;37.20;10.10;;;;;;;7.44;100.00;101230.75;5062774;28;20396;-72
2021/01/12 05:37:00;;;;;;;37.40;10.47;;;;;;;7.47;100.00;101212.28;5066637;28;20426;-74
2021/01/12 05:39:26;;;;;;;37.77;10.97;;;;;;;7.44;100.00;101216.84;5073671;28;20446;-73
2021/01/12 05:41:54;;;;;;;37.47;12.30;;;;;;;7.42;100.00;101231.75;5074142;28;20414;-74
2021/01/12 05:44:22;;;;;;;37.20;12.70;;;;;;;7.46;100.00;101228.06;5073971;28;20495;-73
2021/01/12 05:46:50;;;;;;;35.83;8.30;;;;;;;7.43;100.00;101228.22;5073840;28;20450;-73
2021/01/12 05:49:22;;;;;;;38.27;16.70;;;;;;;7.40;100.00;101228.34;5073097;28;20419;-73
2021/01/12 05:51:49;;;;;;;38.73;15.33;;;;;;;7.39;100.00;101227.50;5073047;28;20411;-80
2021/01/12 05:54:27;;;;;;;55.43;33.10;;;;;;;7.40;100.00;101241.41;5063671;28;21020;-73
2021/01/12 05:56:56;;;;;;;35.53;9.30;;;;;;;7.41;100.00;101240.50;5065589;28;20407;-73
2021/01/12 05:59:27;;;;;;;35.63;9.60;;;;;;;7.42;100.00;101257.88;5073097;28;20537;-73
2021/01/12 06:01:57;;;;;;;36.30;10.97;;;;;;;7.40;100.00;101254.47;5073143;28;20434;-73
2021/01/12 06:04:24;;;;;;;35.07;9.87;;;;;;;7.42;100.00;101253.50;5071882;28;20474;-72
2021/01/12 06:06:54;;;;;;;36.40;9.90;;;;;;;7.42;100.00;101250.06;5059649;28;20407;-74
2021/01/12 06:09:20;;;;;;;36.10;10.20;;;;;;;7.43;100.00;101255.19;5055316;28;20424;-74
2021/01/12 06:11:48;;;;;;;36.77;9.90;;;;;;;7.49;100.00;101275.00;5073405;28;20423;-75
2021/01/12 06:14:16;;;;;;;37.30;11.57;;;;;;;7.46;100.00;101298.66;5072350;28;20494;-72
2021/01/12 06:16:46;;;;;;;37.90;9.57;;;;;;;7.44;100.00;101306.56;5073095;28;20410;-76
2021/01/12 06:19:26;;;;;;;36.50;12.63;;;;;;;7.48;100.00;101308.13;5065639;28;20450;-73
2021/01/12 06:21:54;;;;;;;105.03;54.23;;;;;;;7.48;100.00;101302.03;5063650;28;20815;-74
2021/01/12 06:24:47;;;;;;;36.43;11.17;;;;;;;7.54;100.00;101300.91;5072966;28;20501;-75
2021/01/12 06:27:17;;;;;;;42.80;10.60;;;;;;;7.47;100.00;101316.03;5070754;28;20841;-74
2021/01/12 06:29:46;;;;;;;35.90;11.83;;;;;;;7.48;100.00;101318.59;5063356;28;20924;-73
2021/01/12 06:32:22;;;;;;;37.70;10.87;;;;;;;7.48;100.00;101310.75;5072997;28;20930;-75
2021/01/12 06:34:55;;;;;;;38.13;10.60;;;;;;;7.46;100.00;101294.25;5073655;28;20398;-77
2021/01/12 06:37:22;;;;;;;35.07;8.77;;;;;;;7.46;100.00;101283.81;5055374;28;20504;-76
2021/01/12 06:39:48;;;;;;;35.40;10.47;;;;;;;7.54;100.00;101273.00;5071301;28;20417;-73
2021/01/12 06:42:23;;;;;;;35.70;12.70;;;;;;;7.53;100.00;101271.31;5073185;28;20487;-79
2021/01/12 06:44:50;;;;;;;37.27;9.27;;;;;;;7.50;100.00;101256.63;5073488;28;20874;-78
2021/01/12 06:47:19;;;;;;;37.00;10.00;;;;;;;7.53;100.00;101250.38;5073387;28;20897;-78
2021/01/12 06:49:45;;;;;;;35.33;11.47;;;;;;;7.55;100.00;101263.38;5057475;28;20414;-76
2021/01/12 06:52:12;;;;;;;36.27;13.67;;;;;;;7.51;100.00;101260.94;5053124;28;20411;-77
2021/01/12 06:54:42;;;;;;;39.83;13.97;;;;;;;7.49;100.00;101254.09;5052949;28;20162;-79
2021/01/12 06:57:14;;;;;;;37.10;12.70;;;;;;;7.54;100.00;101253.84;5053901;28;20415;-77
2021/01/12 06:59:46;;;;;;;38.83;16.80;;;;;;;7.58;100.00;101258.03;5052963;28;20407;-77
2021/01/12 07:02:25;;;;;;;40.70;13.50;;;;;;;7.64;100.00;101240.31;5064665;28;20410;-76
2021/01/12 07:04:53;;;;;;;44.87;15.50;;;;;;;7.60;100.00;101228.28;5053387;28;20789;-75
2021/01/12 07:07:26;;;;;;;51.40;18.17;;;;;;;7.58;100.00;101231.88;5052825;28;20777;-79
2021/01/12 07:09:53;;;;;;;37.13;15.40;;;;;;;7.64;100.00;101237.69;5053552;28;20913;-74
2021/01/12 07:12:21;;;;;;;38.23;21.07;;;;;;;7.65;100.00;101241.16;5056079;28;20410;-74
2021/01/12 07:14:50;;;;;;;36.83;15.20;;;;;;;7.62;100.00;101239.50;5072491;28;20426;-73
2021/01/12 07:17:29;;;;;;;43.83;22.13;;;;;;;7.61;100.00;101244.81;5052290;28;20922;-74
2021/01/12 07:20:09;;;;;;;47.37;34.37;;;;;;;7.66;100.00;101243.69;5053650;28;20409;-77
2021/01/12 07:22:37;;;;;;;40.83;16.50;;;;;;;7.68;100.00;101239.22;5058112;28;20415;-73
2021/01/12 07:25:05;;;;;;;41.33;20.93;;;;;;;7.70;100.00;101231.28;5051831;28;20411;-74
2021/01/12 07:27:31;;;;;;;36.47;16.97;;;;;;;7.75;100.00;101221.47;5052083;28;20543;-74
2021/01/12 07:30:01;;;;;;;37.07;16.40;;;;;;;7.74;100.00;101214.56;5052799;28;20510;-76
2021/01/12 07:32:29;;;;;;;47.93;17.90;;;;;;;7.78;100.00;101213.47;5059787;28;20403;-73
2021/01/12 07:34:56;;;;;;;38.00;14.63;;;;;;;7.73;100.00;101207.63;5071861;28;20390;-72
2021/01/12 07:37:31;;;;;;;41.00;19.80;;;;;;;7.75;100.00;101213.63;5071377;28;20418;-72
2021/01/12 07:39:57;;;;;;;42.40;16.63;;;;;;;7.70;100.00;101221.69;5071328;28;20410;-74
2021/01/12 07:42:23;;;;;;;41.70;14.77;;;;;;;7.72;100.00;101225.09;5072005;28;20958;-72
2021/01/12 07:44:49;;;;;;;38.23;13.27;;;;;;;7.76;100.00;101220.56;5071805;28;20403;-72
2021/01/12 07:47:15;;;;;;;36.73;15.60;;;;;;;7.75;100.00;101224.09;5071575;28;20445;-72
2021/01/12 07:49:42;;;;;;;40.27;19.50;;;;;;;7.81;100.00;101226.44;5060031;28;20172;-73
2021/01/12 07:52:08;;;;;;;37.50;16.00;;;;;;;7.78;100.00;101229.16;5056358;28;20665;-75
2021/01/12 07:54:35;;;;;;;38.87;16.47;;;;;;;7.81;100.00;101223.81;5061074;28;20404;-76
2021/01/12 07:57:01;;;;;;;39.63;17.57;;;;;;;7.80;100.00;101219.50;5053334;28;20400;-77
2021/01/12 07:59:27;;;;;;;41.13;15.80;;;;;;;7.74;100.00;101206.72;5054883;28;20821;-77
2021/01/12 08:01:53;;;;;;;37.77;16.17;;;;;;;7.87;100.00;101212.22;5051365;28;20415;-79
2021/01/12 08:04:19;;;;;;;37.53;15.00;;;;;;;7.83;100.00;101210.66;5051088;28;20180;-73
2021/01/12 08:06:46;;;;;;;36.97;12.37;;;;;;;7.88;100.00;101206.06;5050719;28;20434;-73
2021/01/12 08:09:21;;;;;;;39.63;19.57;;;;;;;7.87;100.00;101213.06;5049783;28;20161;-74
2021/01/12 08:11:49;;;;;;;36.83;13.27;;;;;;;7.87;100.00;101202.59;5068815;28;20861;-76
2021/01/12 08:14:14;;;;;;;41.20;20.53;;;;;;;7.85;100.00;101214.03;5071069;28;20948;-75
2021/01/12 08:16:44;;;;;;;43.30;23.27;;;;;;;7.91;100.00;101201.50;5071268;28;20565;-75
2021/01/12 08:19:10;;;;;;;48.77;25.20;;;;;;;8.00;100.00;101208.91;5071253;28;20546;-75
2021/01/12 08:21:39;;;;;;;41.97;18.70;;;;;;;7.95;100.00;101192.59;5065514;28;20492;-73
2021/01/12 08:24:07;;;;;;;40.10;14.97;;;;;;;7.92;100.00;101170.97;5051715;28;20165;-75
2021/01/12 08:26:33;;;;;;;39.13;16.80;;;;;;;7.95;100.00;101161.22;5045801;28;20462;-74
2021/01/12 08:28:59;;;;;;;44.60;23.90;;;;;;;7.92;100.00;101158.72;5067944;28;20414;-76
2021/01/12 08:31:25;;;;;;;40.40;21.93;;;;;;;8.01;100.00;101168.75;5061574;28;20210;-78
2021/01/12 08:33:55;;;;;;;37.40;13.17;;;;;;;8.03;100.00;101168.69;5054900;28;20495;-75
2021/01/12 08:36:26;;;;;;;40.63;14.60;;;;;;;8.04;100.00;101167.75;5050595;28;20248;-76
2021/01/12 08:38:54;;;;;;;37.97;13.13;;;;;;;8.06;100.00;101165.91;5050639;28;20458;-76
2021/01/12 08:41:21;;;;;;;39.43;12.77;;;;;;;8.01;100.00;101144.34;5053194;28;20423;-74
2021/01/12 08:43:55;;;;;;;39.67;18.17;;;;;;;8.02;100.00;101143.44;5052965;28;20400;-74
2021/01/12 08:46:21;;;;;;;41.30;16.13;;;;;;;8.03;100.00;101135.50;5067666;28;20978;-73
2021/01/12 08:48:50;;;;;;;38.83;14.50;;;;;;;8.04;100.00;101121.50;5069199;28;20435;-77
2021/01/12 08:51:17;;;;;;;35.93;12.57;;;;;;;8.04;100.00;101104.97;5060506;28;20427;-79
2021/01/12 08:53:46;;;;;;;38.83;11.77;;;;;;;7.93;100.00;101084.53;5058189;28;20392;-79
2021/01/12 08:56:12;;;;;;;37.20;15.83;;;;;;;8.00;100.00;101085.09;5050997;28;20916;-77
2021/01/12 08:58:38;;;;;;;34.87;10.50;;;;;;;7.96;100.00;101078.34;5054745;28;20450;-79
2021/01/12 09:01:04;;;;;;;32.93;8.87;;;;;;;7.98;100.00;101064.25;5050830;28;20180;-78
2021/01/12 09:03:30;;;;;;;35.53;10.90;;;;;;;7.96;100.00;101050.41;5063185;28;20913;-74
2021/01/12 09:05:56;;;;;;;34.33;8.87;;;;;;;8.03;100.00;101035.25;5070390;28;20413;-78
2021/01/12 09:08:26;;;;;;;36.30;10.67;;;;;;;7.98;100.00;101029.38;5053264;28;20944;-77
2021/01/12 09:11:07;;;;;;;36.33;13.23;;;;;;;7.95;100.00;101019.09;5070853;28;20396;-80
2021/01/12 09:13:34;;;;;;;35.50;10.33;;;;;;;7.98;100.00;101004.06;5042707;28;20476;-80
2021/01/12 09:16:00;;;;;;;34.60;7.83;;;;;;;8.07;100.00;100976.56;5068142;28;20437;-81
2021/01/12 09:18:26;;;;;;;33.33;8.20;;;;;;;8.03;100.00;100957.59;5067660;28;20462;-80
2021/01/12 09:20:56;;;;;;;33.30;8.57;;;;;;;8.03;100.00;100960.22;5056951;28;20406;-77
2021/01/12 09:23:23;;;;;;;35.80;9.93;;;;;;;8.08;100.00;100962.56;5069493;28;20301;-77
2021/01/12 09:26:02;;;;;;;38.60;11.90;;;;;;;8.07;100.00;100961.72;5070692;28;20411;-77
2021/01/12 09:28:35;;;;;;;35.70;11.00;;;;;;;8.09;100.00;100950.34;5068201;28;20499;-79
2021/01/12 09:31:17;;;;;;;41.83;14.47;;;;;;;8.16;100.00;100934.25;5069917;28;20395;-78
2021/01/12 09:33:50;;;;;;;36.50;11.50;;;;;;;8.14;100.00;100922.16;5070516;28;20463;-79
2021/01/12 09:36:18;;;;;;;41.27;14.00;;;;;;;8.16;100.00;100900.22;5066444;28;20402;-79
2021/01/12 09:38:45;;;;;;;34.93;10.17;;;;;;;8.14;100.00;100907.28;5049586;28;21091;-79
2021/01/12 09:41:12;;;;;;;36.20;15.17;;;;;;;8.16;100.00;100901.97;5050126;28;20400;-76
2021/01/12 09:43:38;;;;;;;36.60;11.43;;;;;;;8.13;100.00;100895.13;5067802;28;20430;-78
2021/01/12 09:46:05;;;;;;;36.37;15.97;;;;;;;8.20;100.00;100900.88;5069975;28;20435;-78
2021/01/12 09:48:30;;;;;;;36.77;15.07;;;;;;;8.21;100.00;100898.19;5061651;28;20478;-79
2021/01/12 09:50:56;;;;;;;39.53;15.80;;;;;;;8.23;100.00;100901.53;5053845;28;20471;-77
2021/01/12 09:53:23;;;;;;;42.33;17.43;;;;;;;8.23;100.00;100892.84;5035975;28;20678;-78
2021/01/12 09:55:49;;;;;;;40.10;17.67;;;;;;;8.19;100.00;100889.56;5054257;28;20889;-74
2021/01/12 09:58:14;;;;;;;35.20;15.90;;;;;;;8.24;100.00;100894.56;5073722;28;20537;-77
2021/01/12 10:00:40;;;;;;;43.73;16.33;;;;;;;8.27;100.00;100897.00;5064235;28;20544;-77
2021/01/12 10:03:06;;;;;;;41.87;17.73;;;;;;;8.33;100.00;100896.69;5053310;28;20180;-79
2021/01/12 10:05:36;;;;;;;39.30;17.43;;;;;;;8.29;100.00;100884.66;5053892;28;20644;-78
2021/01/12 10:08:02;;;;;;;37.23;14.73;;;;;;;8.26;100.00;100870.00;5053371;28;20404;-77
2021/01/12 10:10:27;;;;;;;48.40;35.07;;;;;;;8.29;100.00;100877.66;5053325;28;20406;-74
2021/01/12 10:12:53;;;;;;;41.93;16.30;;;;;;;8.28;100.00;100889.06;5054070;28;20184;-75
2021/01/12 10:15:18;;;;;;;40.70;16.77;;;;;;;8.36;100.00;100893.06;5061996;28;20208;-81
2021/01/12 10:17:44;;;;;;;36.67;15.07;;;;;;;8.32;100.00;100910.69;5073637;28;20208;-74
2021/01/12 10:20:10;;;;;;;44.50;16.90;;;;;;;8.37;100.00;100906.06;5058203;28;20200;-77
2021/01/12 10:22:36;;;;;;;39.87;16.30;;;;;;;8.37;100.00;100907.84;5064839;28;20209;-76
2021/01/12 10:25:03;;;;;;;39.97;13.70;;;;;;;8.34;100.00;100880.03;5055000;28;20169;-79
2021/01/12 10:27:34;;;;;;;42.10;18.47;;;;;;;8.39;100.00;100869.31;5044564;28;20722;-72
2021/01/12 10:30:00;;;;;;;39.97;13.63;;;;;;;8.31;100.00;100862.75;5055129;28;20443;-79
2021/01/12 10:32:26;;;;;;;40.00;14.20;;;;;;;8.32;100.00;100842.63;5072653;28;20416;-81
2021/01/12 10:34:51;;;;;;;42.23;13.43;;;;;;;8.41;100.00;100836.06;5071030;28;20429;-76
2021/01/12 10:37:17;;;;;;;35.53;12.70;;;;;;;8.43;100.00;100827.19;5062290;28;20451;-88
2021/01/12 10:39:43;;;;;;;35.60;15.57;;;;;;;8.41;100.00;100833.47;5061454;28;20178;-75
2021/01/12 10:42:09;;;;;;;39.53;16.93;;;;;;;8.41;100.00;100836.06;5056374;28;20181;-78
2021/01/12 10:44:35;;;;;;;34.30;14.23;;;;;;;8.44;100.00;100825.41;5071029;28;20443;-72
2021/01/12 10:47:01;;;;;;;40.03;14.77;;;;;;;8.42;100.00;100817.66;5073324;28;20816;-71
2021/01/12 10:49:26;;;;;;;36.20;16.60;;;;;;;8.40;100.00;100821.31;5072897;28;20252;-71
2021/01/12 10:52:02;;;;;;;36.60;16.57;;;;;;;8.38;100.00;100833.59;5072937;28;20535;-72
2021/01/12 10:54:29;;;;;;;34.07;11.10;;;;;;;8.38;100.00;100834.44;5072449;28;20221;-72
2021/01/12 10:56:56;;;;;;;33.30;10.60;;;;;;;8.51;100.00;100834.63;5068775;28;20404;-70
2021/01/12 10:59:22;;;;;;;33.57;11.83;;;;;;;8.47;100.00;100823.47;5052727;28;20828;-73
2021/01/12 11:01:54;;;;;;;38.30;13.20;;;;;;;8.38;100.00;100808.28;5052499;28;20396;-72
2021/01/12 11:04:20;;;;;;;33.07;8.73;;;;;;;8.37;100.00;100795.28;5057055;28;20405;-72
2021/01/12 11:06:51;;;;;;;33.67;9.40;;;;;;;8.21;100.00;100792.66;5072460;28;20395;-71
2021/01/12 11:09:20;;;;;;;33.20;12.03;;;;;;;8.19;100.00;100791.91;5072374;28;20156;-71
2021/01/12 11:11:48;;;;;;;35.20;14.80;;;;;;;8.22;100.00;100784.72;5072602;28;20893;-74
2021/01/12 11:14:18;;;;;;;33.47;9.67;;;;;;;8.29;100.00;100798.28;5072223;28;20845;-80
2021/01/12 11:16:44;;;;;;;32.37;8.40;;;;;;;8.18;100.00;100792.84;5072222;28;20415;-78